createdAt,value
2023-03-16T00:00:14.445Z,7.40
2023-03-16T00:02:43.990Z,7.10
2023-03-16T00:05:15.182Z,9.33
2023-03-16T00:07:45.009Z,8.77
2023-03-16T00:10:14.868Z,10.17
2023-03-16T00:12:45.179Z,11.10
2023-03-16T00:15:15.013Z,13.80
2023-03-16T00:17:48.853Z,13.10
2023-03-16T00:20:20.296Z,13.23
2023-03-16T00:22:49.390Z,12.73
2023-03-16T00:25:18.645Z,13.83
2023-03-16T00:27:48.120Z,13.33
2023-03-16T00:30:17.235Z,12.70
2023-03-16T00:32:46.437Z,12.50
2023-03-16T00:35:20.216Z,11.80
2023-03-16T00:37:49.836Z,12.10
2023-03-16T00:40:20.282Z,14.37
2023-03-16T00:42:49.436Z,14.00
2023-03-16T00:45:18.494Z,14.50
2023-03-16T00:47:47.922Z,13.47
2023-03-16T00:50:17.033Z,14.20
2023-03-16T00:52:47.956Z,15.87
2023-03-16T00:55:17.143Z,15.23
2023-03-16T00:57:46.277Z,15.87
2023-03-16T01:00:17.281Z,16.30
2023-03-16T01:02:47.987Z,15.07
2023-03-16T01:05:17.110Z,16.33
2023-03-16T01:07:48.453Z,15.57
2023-03-16T01:10:18.576Z,16.90
2023-03-16T01:12:47.831Z,16.53
2023-03-16T01:15:17.387Z,17.20
2023-03-16T01:17:46.433Z,17.23
2023-03-16T01:20:19.480Z,17.73
2023-03-16T01:22:50.039Z,18.40
2023-03-16T01:25:19.537Z,17.47
2023-03-16T01:27:48.960Z,15.60
2023-03-16T01:30:18.296Z,15.10
2023-03-16T01:32:47.433Z,15.27
2023-03-16T01:35:16.588Z,16.30
2023-03-16T01:37:45.653Z,15.43
2023-03-16T01:40:22.313Z,15.93
2023-03-16T01:43:05.810Z,14.30
2023-03-16T01:45:57.464Z,14.10
2023-03-16T01:48:28.345Z,13.30
2023-03-16T01:50:58.782Z,12.33
2023-03-16T01:53:27.916Z,11.33
2023-03-16T01:55:57.074Z,12.47
2023-03-16T01:58:28.105Z,13.70
2023-03-16T02:00:58.233Z,12.60
2023-03-16T02:03:27.860Z,11.30
2023-03-16T02:06:03.431Z,11.93
2023-03-16T02:08:35.470Z,11.17
2023-03-16T02:11:05.969Z,10.90
2023-03-16T02:14:02.623Z,10.53
2023-03-16T02:16:32.372Z,10.33
2023-03-16T02:19:01.684Z,10.13
2023-03-16T02:21:35.843Z,9.23
2023-03-16T02:24:06.669Z,9.10
2023-03-16T02:26:39.463Z,11.13
2023-03-16T02:29:16.369Z,9.87
2023-03-16T02:31:49.003Z,11.47
2023-03-16T02:34:19.146Z,9.90
2023-03-16T02:36:49.357Z,11.60
2023-03-16T02:39:21.720Z,10.83
2023-03-16T02:41:51.681Z,10.57
2023-03-16T02:44:24.459Z,11.50
2023-03-16T02:46:58.347Z,12.40
2023-03-16T02:49:29.591Z,12.03
2023-03-16T02:51:58.918Z,11.23
2023-03-16T02:54:28.012Z,10.20
2023-03-16T02:56:57.270Z,12.20
2023-03-16T02:59:27.589Z,10.90
2023-03-16T03:01:58.279Z,11.90
2023-03-16T03:04:27.375Z,10.67
2023-03-16T03:06:58.895Z,11.63
2023-03-16T03:09:28.218Z,14.50
2023-03-16T03:11:57.711Z,12.67
2023-03-16T03:14:28.475Z,13.67
2023-03-16T03:16:59.233Z,14.40
2023-03-16T03:19:28.432Z,12.27
2023-03-16T03:21:57.995Z,12.60
2023-03-16T03:24:28.202Z,13.10
2023-03-16T03:26:57.321Z,13.20
2023-03-16T03:29:34.474Z,13.17
2023-03-16T03:32:05.479Z,13.10
2023-03-16T03:34:34.988Z,13.80
2023-03-16T03:37:04.138Z,13.40
2023-03-16T03:39:34.095Z,14.57
2023-03-16T03:42:03.444Z,13.40
2023-03-16T03:44:34.817Z,14.00
2023-03-16T03:47:05.916Z,13.60
2023-03-16T03:49:35.309Z,13.30
2023-03-16T03:52:05.367Z,13.67
2023-03-16T03:54:34.501Z,12.50
2023-03-16T03:57:15.683Z,12.67
2023-03-16T03:59:44.786Z,10.70
2023-03-16T04:02:32.465Z,11.37
2023-03-16T04:05:01.733Z,10.60
2023-03-16T04:07:32.026Z,11.30
2023-03-16T04:10:05.824Z,10.57
2023-03-16T04:12:39.683Z,10.27
2023-03-16T04:15:12.626Z,10.10
2023-03-16T04:18:03.742Z,10.70
2023-03-16T04:20:33.445Z,10.40
2023-03-16T04:23:02.585Z,11.00
2023-03-16T04:25:32.764Z,10.63
2023-03-16T04:28:02.303Z,10.83
2023-03-16T04:30:35.393Z,9.63
2023-03-16T04:33:16.266Z,11.20
2023-03-16T04:35:46.875Z,9.43
2023-03-16T04:38:17.895Z,11.83
2023-03-16T04:40:55.734Z,9.50
2023-03-16T04:43:29.137Z,10.33
2023-03-16T04:46:04.838Z,10.80
2023-03-16T04:48:36.648Z,11.43
2023-03-16T04:51:07.871Z,11.13
2023-03-16T04:53:41.142Z,10.67
2023-03-16T04:56:20.921Z,11.43
2023-03-16T04:58:57.369Z,11.13
2023-03-16T05:01:29.913Z,11.80
2023-03-16T05:04:04.249Z,10.77
2023-03-16T05:06:35.994Z,10.73
2023-03-16T05:09:06.218Z,10.97
2023-03-16T05:11:37.981Z,10.97
2023-03-16T05:14:10.896Z,10.37
2023-03-16T05:16:54.188Z,10.13
2023-03-16T05:19:26.007Z,10.40
2023-03-16T05:21:55.489Z,9.83
2023-03-16T05:24:25.153Z,10.00
2023-03-16T05:26:54.250Z,11.90
2023-03-16T05:29:26.216Z,10.27
2023-03-16T05:31:55.304Z,10.20
2023-03-16T05:34:29.108Z,12.47
2023-03-16T05:36:58.359Z,10.93
2023-03-16T05:39:28.737Z,10.00
2023-03-16T05:41:58.140Z,12.70
2023-03-16T05:44:37.399Z,11.73
2023-03-16T05:47:14.636Z,11.77
2023-03-16T05:49:49.351Z,11.20
2023-03-16T05:52:45.571Z,10.40
2023-03-16T05:55:23.633Z,11.67
2023-03-16T05:57:58.306Z,11.40
2023-03-16T06:00:27.949Z,10.27
2023-03-16T06:03:08.334Z,8.57
2023-03-16T06:05:41.873Z,9.80
2023-03-16T06:08:11.475Z,9.10
2023-03-16T06:10:43.691Z,9.17
2023-03-16T06:13:12.805Z,8.03
2023-03-16T06:15:42.246Z,8.10
2023-03-16T06:18:11.637Z,7.30
2023-03-16T06:20:42.113Z,7.20
2023-03-16T06:23:11.220Z,8.20
2023-03-16T06:25:40.800Z,8.70
2023-03-16T06:28:11.346Z,9.13
2023-03-16T06:30:41.774Z,7.80
2023-03-16T06:33:11.012Z,7.70
2023-03-16T06:35:40.200Z,8.77
2023-03-16T06:38:18.011Z,7.10
2023-03-16T06:41:01.810Z,9.17
2023-03-16T06:43:31.934Z,7.73
2023-03-16T06:46:01.734Z,9.70
2023-03-16T06:48:31.378Z,11.13
2023-03-16T06:51:00.478Z,9.53
2023-03-16T06:53:33.026Z,10.00
2023-03-16T06:56:03.519Z,9.27
2023-03-16T06:58:35.630Z,11.47
2023-03-16T07:01:07.084Z,10.53
2023-03-16T07:03:36.385Z,11.50
2023-03-16T07:06:14.187Z,10.30
2023-03-16T07:08:46.260Z,10.60
2023-03-16T07:11:15.826Z,11.30
2023-03-16T07:13:45.040Z,11.00
2023-03-16T07:16:15.483Z,11.73
2023-03-16T07:18:45.389Z,12.27
2023-03-16T07:21:17.403Z,14.50
2023-03-16T07:23:48.936Z,12.93
2023-03-16T07:26:23.293Z,14.23
2023-03-16T07:28:58.186Z,13.90
2023-03-16T07:31:27.927Z,14.70
2023-03-16T07:34:00.009Z,16.23
2023-03-16T07:36:38.061Z,13.70
2023-03-16T07:39:08.762Z,15.37
2023-03-16T07:41:38.062Z,14.00
2023-03-16T07:44:17.213Z,13.90
2023-03-16T07:46:50.260Z,13.90
2023-03-16T07:49:20.559Z,14.20
2023-03-16T07:51:51.624Z,15.80
2023-03-16T07:54:25.427Z,14.33
2023-03-16T07:56:54.887Z,12.87
2023-03-16T07:59:35.710Z,13.23
2023-03-16T08:02:05.134Z,18.17
2023-03-16T08:04:34.524Z,12.87
2023-03-16T08:07:04.830Z,13.57
2023-03-16T08:09:49.461Z,20.53
2023-03-16T08:12:23.949Z,13.40
2023-03-16T08:14:54.715Z,14.47
2023-03-16T08:17:30.523Z,14.17
2023-03-16T08:20:01.408Z,14.87
2023-03-16T08:22:31.713Z,13.50
2023-03-16T08:25:03.100Z,13.60
2023-03-16T08:27:32.218Z,15.47
2023-03-16T08:30:07.060Z,14.73
2023-03-16T08:32:40.232Z,14.10
2023-03-16T08:35:13.620Z,10.70
2023-03-16T08:37:43.202Z,10.43
2023-03-16T08:40:16.512Z,11.60
2023-03-16T08:42:46.956Z,11.50
2023-03-16T08:45:17.543Z,12.57
2023-03-16T08:47:47.109Z,10.17
2023-03-16T08:50:19.823Z,9.13
2023-03-16T08:52:49.672Z,10.20
2023-03-16T08:55:20.357Z,12.43
2023-03-16T08:57:49.898Z,14.53
2023-03-16T09:00:20.598Z,12.87
2023-03-16T09:02:50.207Z,14.20
2023-03-16T09:05:19.491Z,15.47
2023-03-16T09:07:49.104Z,14.70
2023-03-16T09:10:19.169Z,16.10
2023-03-16T09:12:49.598Z,16.70
2023-03-16T09:15:19.788Z,17.33
2023-03-16T09:17:50.454Z,15.57
2023-03-16T09:20:26.515Z,13.80
2023-03-16T09:22:58.925Z,11.80
2023-03-16T09:25:28.371Z,12.20
2023-03-16T09:27:59.373Z,11.70
2023-03-16T09:30:29.064Z,10.90
2023-03-16T09:32:58.425Z,13.00
2023-03-16T09:35:27.836Z,12.70
2023-03-16T09:38:06.914Z,13.70
2023-03-16T09:40:37.208Z,7.73
2023-03-16T09:43:27.087Z,5.30
2023-03-16T09:46:02.330Z,7.60
2023-03-16T09:48:35.696Z,7.67
2023-03-16T09:51:07.907Z,5.93
2023-03-16T09:53:39.261Z,18.33
2023-03-16T09:56:11.352Z,7.83
2023-03-16T09:58:42.175Z,3.93
2023-03-16T10:01:16.086Z,5.10
2023-03-16T10:04:00.892Z,4.10
2023-03-16T10:06:31.338Z,5.43
2023-03-16T10:09:04.030Z,4.40
2023-03-16T10:11:34.157Z,12.17
2023-03-16T10:14:07.579Z,5.50
2023-03-16T10:16:40.148Z,4.27
2023-03-16T10:19:13.913Z,6.13
2023-03-16T10:21:43.848Z,3.50
2023-03-16T10:24:21.140Z,4.33
2023-03-16T10:26:55.706Z,5.40
2023-03-16T10:29:27.421Z,3.93
2023-03-16T10:31:57.329Z,4.07
2023-03-16T10:34:26.434Z,3.57
2023-03-16T10:36:56.671Z,4.93
2023-03-16T10:39:26.606Z,3.97
2023-03-16T10:41:59.441Z,3.60
2023-03-16T10:44:31.166Z,3.87
2023-03-16T10:47:05.047Z,4.87
2023-03-16T10:49:39.476Z,3.47
2023-03-16T10:52:11.261Z,4.37
2023-03-16T10:54:41.282Z,5.53
2023-03-16T10:57:16.908Z,6.30
2023-03-16T10:59:52.152Z,6.63
2023-03-16T11:02:23.822Z,7.80
2023-03-16T11:04:54.657Z,6.90
2023-03-16T11:07:25.786Z,3.63
2023-03-16T11:09:54.984Z,5.50
2023-03-16T11:12:26.452Z,3.40
2023-03-16T11:14:57.427Z,4.43
2023-03-16T11:17:30.414Z,3.30
2023-03-16T11:20:01.102Z,3.37
2023-03-16T11:22:30.497Z,2.87
2023-03-16T11:25:02.563Z,3.10
2023-03-16T11:27:35.853Z,2.70
2023-03-16T11:30:11.531Z,4.30
2023-03-16T11:32:41.621Z,2.50
2023-03-16T11:35:18.227Z,3.23
2023-03-16T11:38:01.380Z,2.57
2023-03-16T11:40:38.702Z,4.50
2023-03-16T11:43:16.034Z,3.20
2023-03-16T11:45:51.088Z,3.07
2023-03-16T11:48:36.735Z,3.20
2023-03-16T11:51:11.552Z,3.90
2023-03-16T11:53:53.325Z,2.93
2023-03-16T11:56:28.613Z,3.10
2023-03-16T11:59:02.865Z,3.33
2023-03-16T12:01:45.106Z,3.37
2023-03-16T12:04:33.842Z,3.70
2023-03-16T12:07:09.444Z,3.30
2023-03-16T12:09:56.107Z,4.43
2023-03-16T12:12:29.712Z,3.50
2023-03-16T12:15:11.280Z,2.73
2023-03-16T12:17:42.920Z,3.30
2023-03-16T12:20:17.289Z,2.80
2023-03-16T12:22:47.010Z,4.23
2023-03-16T12:25:20.570Z,3.53
2023-03-16T12:27:51.528Z,3.80
2023-03-16T12:30:27.748Z,3.10
2023-03-16T12:33:02.570Z,2.90
2023-03-16T12:35:36.102Z,2.60
2023-03-16T12:38:15.418Z,2.53
2023-03-16T12:40:47.950Z,3.37
2023-03-16T12:43:31.914Z,2.83
2023-03-16T12:46:06.077Z,4.93
2023-03-16T12:48:39.640Z,2.47
2023-03-16T12:51:08.819Z,2.70
2023-03-16T12:53:43.540Z,2.30
2023-03-16T12:56:13.466Z,2.60
2023-03-16T12:58:45.629Z,4.37
2023-03-16T13:01:21.014Z,2.37
2023-03-16T13:03:53.047Z,2.10
2023-03-16T13:06:24.060Z,3.23
2023-03-16T13:08:54.924Z,5.20
2023-03-16T13:11:24.427Z,2.47
2023-03-16T13:13:55.268Z,2.50
2023-03-16T13:16:29.117Z,2.50
2023-03-16T13:19:00.132Z,4.07
2023-03-16T13:21:39.689Z,4.40
2023-03-16T13:24:16.396Z,2.80
2023-03-16T13:26:48.013Z,2.60
2023-03-16T13:29:23.850Z,2.50
2023-03-16T13:31:54.130Z,2.83
2023-03-16T13:34:26.605Z,2.50
2023-03-16T13:36:58.335Z,2.80
2023-03-16T13:39:28.766Z,2.47
2023-03-16T13:42:02.039Z,3.07
2023-03-16T13:44:31.732Z,2.40
2023-03-16T13:47:05.329Z,2.70
2023-03-16T13:49:44.908Z,2.90
2023-03-16T13:52:16.819Z,3.20
2023-03-16T13:54:46.887Z,2.67
2023-03-16T13:57:16.746Z,2.30
2023-03-16T13:59:46.053Z,3.43
2023-03-16T14:02:19.221Z,2.50
2023-03-16T14:04:50.280Z,2.67
2023-03-16T14:07:20.832Z,3.03
2023-03-16T14:09:50.696Z,3.00
2023-03-16T14:12:20.807Z,3.33
2023-03-16T14:14:51.296Z,3.53
2023-03-16T14:17:21.924Z,3.13
2023-03-16T14:19:53.042Z,3.63
2023-03-16T14:22:24.726Z,3.80
2023-03-16T14:24:57.607Z,2.50
2023-03-16T14:27:31.752Z,2.80
2023-03-16T14:30:03.857Z,4.30
2023-03-16T14:32:34.590Z,3.60
2023-03-16T14:35:15.697Z,3.73
2023-03-16T14:37:46.194Z,4.43
2023-03-16T14:40:26.047Z,3.40
2023-03-16T14:42:57.627Z,2.93
2023-03-16T14:45:30.058Z,3.90
2023-03-16T14:48:03.674Z,2.67
2023-03-16T14:50:35.301Z,2.40
2023-03-16T14:53:05.272Z,3.80
2023-03-16T14:55:34.643Z,5.03
2023-03-16T14:58:03.889Z,3.00
2023-03-16T15:00:37.072Z,5.03
2023-03-16T15:03:14.864Z,5.63
2023-03-16T15:05:48.198Z,5.63
2023-03-16T15:08:19.373Z,4.80
2023-03-16T15:10:48.640Z,3.53
2023-03-16T15:13:34.939Z,4.00
2023-03-16T15:16:04.670Z,4.50
2023-03-16T15:18:34.014Z,4.43
2023-03-16T15:21:06.833Z,4.10
2023-03-16T15:23:36.168Z,3.90
2023-03-16T15:26:07.514Z,3.70
2023-03-16T15:28:36.870Z,4.67
2023-03-16T15:31:06.458Z,5.07
2023-03-16T15:33:36.018Z,3.77
2023-03-16T15:36:12.835Z,4.43
2023-03-16T15:38:44.140Z,4.90
2023-03-16T15:41:13.711Z,3.53
2023-03-16T15:43:44.326Z,3.50
2023-03-16T15:46:13.888Z,4.20
2023-03-16T15:48:44.555Z,4.20
2023-03-16T15:51:19.804Z,4.97
2023-03-16T15:53:51.120Z,4.67
2023-03-16T15:56:26.814Z,3.53
2023-03-16T15:58:56.726Z,3.60
2023-03-16T16:01:50.381Z,3.13
2023-03-16T16:04:21.021Z,3.27
2023-03-16T16:06:53.875Z,4.63
2023-03-16T16:09:23.399Z,3.50
2023-03-16T16:11:52.551Z,4.27
2023-03-16T16:14:24.167Z,3.87
2023-03-16T16:16:54.524Z,5.20
2023-03-16T16:19:23.861Z,3.80
2023-03-16T16:21:54.655Z,3.57
2023-03-16T16:24:23.712Z,5.93
2023-03-16T16:26:55.591Z,6.80
2023-03-16T16:29:25.807Z,5.10
2023-03-16T16:31:55.504Z,4.00
2023-03-16T16:34:25.914Z,3.13
2023-03-16T16:36:56.807Z,3.07
2023-03-16T16:39:26.426Z,3.10
2023-03-16T16:41:56.829Z,3.70
2023-03-16T16:44:27.587Z,3.13
2023-03-16T16:46:56.730Z,3.60
2023-03-16T16:49:28.421Z,3.97
2023-03-16T16:52:00.021Z,3.30
2023-03-16T16:54:30.612Z,3.00
2023-03-16T16:57:00.084Z,3.30
2023-03-16T16:59:31.600Z,4.23
2023-03-16T17:02:02.364Z,3.33
2023-03-16T17:04:32.045Z,3.07
2023-03-16T17:07:03.700Z,3.50
2023-03-16T17:09:33.057Z,4.13
2023-03-16T17:12:03.023Z,4.00
2023-03-16T17:14:32.529Z,4.57
2023-03-16T17:17:03.164Z,4.27
2023-03-16T17:19:32.999Z,5.57
2023-03-16T17:22:03.474Z,5.20
2023-03-16T17:24:32.604Z,3.43
2023-03-16T17:27:02.834Z,3.60
2023-03-16T17:29:33.145Z,4.10
2023-03-16T17:32:03.010Z,3.37
2023-03-16T17:34:34.494Z,7.47
2023-03-16T17:37:05.396Z,3.20
2023-03-16T17:39:35.122Z,3.50
2023-03-16T17:42:06.399Z,3.80
2023-03-16T17:44:37.207Z,3.60
2023-03-16T17:47:13.721Z,3.30
2023-03-16T17:49:44.889Z,4.60
2023-03-16T17:52:18.777Z,4.80
2023-03-16T17:54:48.129Z,5.43
2023-03-16T17:57:19.085Z,5.00
2023-03-16T17:59:48.697Z,4.43
2023-03-16T18:02:24.047Z,3.90
2023-03-16T18:04:53.452Z,4.33
2023-03-16T18:07:24.348Z,5.13
2023-03-16T18:09:53.531Z,4.50
2023-03-16T18:12:22.738Z,53.17
2023-03-16T18:14:58.582Z,3.80
2023-03-16T18:17:29.764Z,4.00
2023-03-16T18:19:59.651Z,5.37
2023-03-16T18:22:30.579Z,4.20
2023-03-16T18:25:02.282Z,4.40
2023-03-16T18:27:31.495Z,4.60
2023-03-16T18:30:00.966Z,5.70
2023-03-16T18:32:32.419Z,5.30
2023-03-16T18:35:03.894Z,4.90
2023-03-16T18:37:35.149Z,3.37
2023-03-16T18:40:04.225Z,3.70
2023-03-16T18:42:33.842Z,4.67
2023-03-16T18:45:04.265Z,4.53
2023-03-16T18:47:35.025Z,4.30
2023-03-16T18:50:04.545Z,4.20
2023-03-16T18:52:39.578Z,3.90
2023-03-16T18:55:16.161Z,3.43
2023-03-16T18:57:46.778Z,3.50
2023-03-16T19:00:19.642Z,3.20
2023-03-16T19:02:50.578Z,4.33
2023-03-16T19:05:20.767Z,4.30
2023-03-16T19:07:52.687Z,3.93
2023-03-16T19:10:26.280Z,4.90
2023-03-16T19:12:56.035Z,4.67
2023-03-16T19:15:26.185Z,3.93
2023-03-16T19:17:55.746Z,5.40
2023-03-16T19:20:25.938Z,3.70
2023-03-16T19:23:00.528Z,4.13
2023-03-16T19:25:31.699Z,3.87
2023-03-16T19:28:01.666Z,3.47
2023-03-16T19:30:31.589Z,4.33
2023-03-16T19:33:01.436Z,8.03
2023-03-16T19:35:50.219Z,6.40
2023-03-16T19:38:21.813Z,4.80
2023-03-16T19:40:54.289Z,4.90
2023-03-16T19:43:23.791Z,8.07
2023-03-16T19:45:53.066Z,5.90
2023-03-16T19:48:23.345Z,6.30
2023-03-16T19:50:52.988Z,4.93
2023-03-16T19:53:24.540Z,4.67
2023-03-16T19:55:54.621Z,5.00
2023-03-16T19:58:29.191Z,4.67
2023-03-16T20:01:04.127Z,4.20
2023-03-16T20:03:34.828Z,4.87
2023-03-16T20:06:04.236Z,3.77
2023-03-16T20:08:34.967Z,4.47
2023-03-16T20:11:06.084Z,4.83
2023-03-16T20:13:36.333Z,5.67
2023-03-16T20:16:05.628Z,8.17
2023-03-16T20:18:35.027Z,5.20
2023-03-16T20:21:04.659Z,6.37
2023-03-16T20:23:35.838Z,6.27
2023-03-16T20:26:05.175Z,7.30
2023-03-16T20:28:36.293Z,6.97
2023-03-16T20:31:08.395Z,6.67
2023-03-16T20:33:37.658Z,7.30
2023-03-16T20:36:08.044Z,7.60
2023-03-16T20:38:39.001Z,6.53
2023-03-16T20:41:13.804Z,5.40
2023-03-16T20:43:43.429Z,5.63
2023-03-16T20:46:16.482Z,4.93
2023-03-16T20:48:46.376Z,8.70
2023-03-16T20:51:16.509Z,5.90
2023-03-16T20:53:47.855Z,9.80
2023-03-16T20:56:18.168Z,6.10
2023-03-16T20:58:48.186Z,10.83
2023-03-16T21:01:19.003Z,7.77
2023-03-16T21:03:48.760Z,6.30
2023-03-16T21:06:23.724Z,5.73
2023-03-16T21:08:55.731Z,10.23
2023-03-16T21:11:25.968Z,7.37
2023-03-16T21:13:56.383Z,6.00
2023-03-16T21:16:25.513Z,7.73
2023-03-16T21:18:54.704Z,8.33
2023-03-16T21:21:24.186Z,6.20
2023-03-16T21:23:55.070Z,7.20
2023-03-16T21:26:25.073Z,6.17
2023-03-16T21:28:56.748Z,5.73
2023-03-16T21:31:26.506Z,5.63
2023-03-16T21:33:56.551Z,6.57
2023-03-16T21:36:26.693Z,5.30
2023-03-16T21:38:58.595Z,4.97
2023-03-16T21:41:27.849Z,5.23
2023-03-16T21:43:56.955Z,5.30
2023-03-16T21:46:27.163Z,4.43
2023-03-16T21:48:57.164Z,6.40
2023-03-16T21:51:30.346Z,5.00
2023-03-16T21:54:01.747Z,4.67
2023-03-16T21:56:30.988Z,5.13
2023-03-16T21:59:00.455Z,5.40
2023-03-16T22:01:31.891Z,6.87
2023-03-16T22:04:03.925Z,6.90
2023-03-16T22:06:33.429Z,19.87
2023-03-16T22:09:04.229Z,4.50
2023-03-16T22:11:33.911Z,5.50
2023-03-16T22:14:03.010Z,4.50
2023-03-16T22:16:34.975Z,4.57
2023-03-16T22:19:04.608Z,4.10
2023-03-16T22:21:35.099Z,6.70
2023-03-16T22:24:07.301Z,4.17
2023-03-16T22:26:37.527Z,4.10
2023-03-16T22:29:17.575Z,4.90
2023-03-16T22:31:47.340Z,11.90
2023-03-16T22:34:23.689Z,4.70
2023-03-16T22:36:52.984Z,4.47
2023-03-16T22:39:23.505Z,4.53
2023-03-16T22:41:53.115Z,4.50
2023-03-16T22:44:23.192Z,4.13
2023-03-16T22:46:52.342Z,3.70
2023-03-16T22:49:22.389Z,4.70
2023-03-16T22:51:52.234Z,3.70
2023-03-16T22:54:22.642Z,3.87
2023-03-16T22:56:53.474Z,3.53
2023-03-16T22:59:23.805Z,3.93
2023-03-16T23:01:52.802Z,4.37
2023-03-16T23:04:23.335Z,3.90
2023-03-16T23:06:53.669Z,4.37
2023-03-16T23:09:23.606Z,3.83
2023-03-16T23:11:54.897Z,3.63
2023-03-16T23:14:25.963Z,4.00
2023-03-16T23:16:55.082Z,3.70
2023-03-16T23:19:25.864Z,3.40
2023-03-16T23:21:56.017Z,4.30
2023-03-16T23:24:25.134Z,4.30
2023-03-16T23:26:56.331Z,6.37
2023-03-16T23:29:26.355Z,3.40
2023-03-16T23:31:55.852Z,4.80
2023-03-16T23:34:26.441Z,4.90
2023-03-16T23:36:55.790Z,4.67
2023-03-16T23:39:24.873Z,4.63
2023-03-16T23:41:55.348Z,4.87
2023-03-16T23:44:26.030Z,4.60
2023-03-16T23:46:55.391Z,5.03
2023-03-16T23:49:26.102Z,5.53
2023-03-16T23:51:55.777Z,4.57
2023-03-16T23:54:25.657Z,5.03
2023-03-16T23:56:56.437Z,5.13
2023-03-16T23:59:26.768Z,4.80
